Latest Weather Observations for Coonabarabran Airport

IDN60801

Issued at 12:03 pm EST Wednesday 8 July 2015 (issued every 30 minutes, with the page automatically refreshed every 10 minutes)

About weather observations | Map of weather stations | Latest weather observations for NSW | Other Formats
Station Details ID: 064017 Name: COONABARABRAN AIRPORT AWS Lat: -31.33 Lon: 149.27 Height: 645.0 m
Data from the previous 72 hours. | See also: Recent months for locations in New South Wales
Date/Time
EST
Temp
°C
App
Temp
°C
Dew
Point
Rel
Hum
%
Delta-T
°C
Wind Press
QNH
hPa
Press
MSL
hPa
Rain
since 9 am
mm
Dir
 
Spd
km/h
Gust
km/h
Spd
kts
Gust
kts
08/12:00pm 11.7 7.9 5.6 66 2.9 E 15 20 8 11 1025.8 1025.9 0.0
08/11:30am 10.5 6.1 4.6 67 2.7 E 17 22 9 12 1026.3 1026.5 0.0
08/11:00am 10.1 5.9 5.5 73 2.2 E 17 22 9 12 1026.5 1026.7 0.0
08/10:30am 9.4 5.0 5.0 74 2.1 E 17 22 9 12 1026.7 1026.9 0.0
08/10:00am 8.5 3.7 4.5 76 1.8 ESE 19 26 10 14 1026.7 1026.9 0.0
08/09:30am 8.0 4.3 4.6 79 1.6 ESE 13 20 7 11 1026.5 1026.7 0.0
08/09:00am 7.5 4.5 4.3 80 1.4 ESE 9 15 5 8 1026.4 1026.6 0.0
08/08:30am 6.4 3.3 3.7 83 1.2 SSE 9 20 5 11 1026.3 1026.5 0.0
08/08:00am 5.6 2.5 3.6 87 0.9 SE 9 19 5 10 1026.1 1026.3 0.0
08/07:30am 4.7 1.5 2.9 88 0.8 SE 9 11 5 6 1025.8 1025.9 0.0
08/07:00am 4.6 1.4 2.8 88 0.8 SE 9 15 5 8 1025.5 1025.7 0.0
08/06:30am 4.7 1.5 3.0 89 0.7 SSE 9 17 5 9 1025.2 1025.4 0.0
08/06:00am 4.6 1.4 3.1 90 0.6 SE 9 15 5 8 1025.0 1025.2 0.0
08/05:30am 4.2 0.6 2.7 90 0.6 ESE 11 13 6 7 1024.7 1024.9 0.0
08/05:00am 4.6 1.0 2.9 89 0.7 ESE 11 13 6 7 1024.5 1024.6 0.0
08/04:30am 4.6 1.0 2.9 89 0.7 ESE 11 13 6 7 1024.3 1024.4 0.0
08/04:00am 4.3 0.3 2.8 90 0.6 E 13 15 7 8 1024.4 1024.5 0.0
08/03:30am 4.5 0.5 2.8 89 0.7 E 13 15 7 8 1024.4 1024.5 0.0
08/03:00am 4.7 0.3 2.9 88 0.8 E 15 20 8 11 1024.2 1024.3 0.0
08/02:30am 5.4 1.7 2.4 81 1.3 E 11 13 6 7 1024.2 1024.3 0.0
08/02:00am 6.5 3.3 2.9 78 1.6 ESE 9 15 5 8 1024.0 1024.2 0.0
08/01:30am 6.2 3.1 3.5 83 1.2 ESE 9 17 5 9 1024.0 1024.2 0.0
08/01:00am 6.2 3.6 4.4 88 0.8 SE 7 15 4 8 1024.0 1024.2 0.0
08/12:30am 6.4 3.4 4.2 86 1.0 SSE 9 17 5 9 1024.0 1024.2 0.0
08/12:00am 6.8 3.9 4.5 85 1.0 S 9 15 5 8 1023.9 1024.1 0.0
 
Date/Time
EST
Temp
°C
App
Temp
°C
Dew
Point
Rel
Hum
%
Delta-T
°C
Wind Press
QNH
hPa
Press
MSL
hPa
Rain
since 9 am
mm
Dir
 
Spd
km/h
Gust
km/h
Spd
kts
Gust
kts
07/11:30pm 6.8 3.8 4.1 83 1.2 SSW 9 15 5 8 1023.9 1024.1 0.0
07/11:00pm 6.6 3.6 3.9 83 1.2 SW 9 19 5 10 1023.7 1023.9 0.0
07/10:30pm 6.8 3.8 3.9 82 1.3 SSW 9 11 5 6 1023.6 1023.8 0.0
07/10:00pm 6.7 3.7 3.9 82 1.2 SW 9 11 5 6 1023.5 1023.7 0.0
07/09:30pm 7.1 4.1 4.1 81 1.3 SW 9 15 5 8 1023.4 1023.6 0.0
07/09:00pm 7.3 4.3 3.9 79 1.5 SW 9 15 5 8 1023.3 1023.4 0.0
07/08:30pm 7.5 4.5 3.9 78 1.6 SW 9 13 5 7 1023.2 1023.3 0.0
07/08:00pm 7.6 4.6 4.0 78 1.6 SW 9 15 5 8 1023.0 1023.1 0.0
07/07:30pm 7.3 4.1 3.2 75 1.8 WSW 9 15 5 8 1022.8 1022.9 0.0
07/07:00pm 8.0 4.8 2.9 70 2.2 SW 9 15 5 8 1022.7 1022.8 0.0
07/06:30pm 8.4 5.5 2.8 68 2.5 SW 7 15 4 8 1022.5 1022.6 0.0
07/06:00pm 8.5 5.2 2.7 67 2.5 SSW 9 13 5 7 1022.0 1022.2 0.0
07/05:30pm 9.2 6.0 2.8 64 2.8 SSW 9 13 5 7 1021.7 1021.8 0.0
07/05:00pm 10.1 6.5 2.9 61 3.2 SW 11 15 6 8 1021.5 1021.6 0.0
07/04:30pm 11.1 7.5 2.9 57 3.7 SSW 11 13 6 7 1021.2 1021.3 0.0
07/04:00pm 11.9 8.0 3.2 55 4.0 SSW 13 19 7 10 1021.1 1021.2 0.0
07/03:30pm 12.4 8.5 3.4 54 4.2 SSW 13 17 7 9 1021.0 1021.1 0.0
07/03:00pm 12.3 8.3 3.0 53 4.2 SSW 13 20 7 11 1020.9 1021.0 0.0
07/02:30pm 11.7 6.6 3.2 56 3.9 SSW 19 28 10 15 1020.8 1020.9 0.0
07/02:00pm 11.0 5.9 3.1 58 3.6 SSW 19 24 10 13 1020.8 1020.9 0.0
07/01:30pm 12.5 7.5 3.5 54 4.2 SSW 19 26 10 14 1020.8 1020.9 0.0
07/01:00pm 12.0 7.3 3.0 54 4.1 SSW 17 24 9 13 1020.9 1021.0 0.0
07/12:30pm 12.1 6.8 3.1 54 4.1 S 20 30 11 16 1021.1 1021.2 0.0
07/12:00pm 12.0 6.4 3.3 55 4.0 SSW 22 30 12 16 1021.3 1021.4 0.0
07/11:30am 11.2 6.0 3.3 58 3.6 SSW 20 30 11 16 1021.6 1021.7 0.0
07/11:00am 10.8 5.2 3.6 61 3.3 SSW 22 30 12 16 1021.7 1021.8 0.0
07/10:30am 10.3 5.3 3.6 63 3.1 SSW 19 24 10 13 1021.8 1021.9 0.0
07/10:00am 9.8 5.6 4.0 67 2.6 SSW 15 20 8 11 1021.9 1022.0 0.0
07/09:30am 8.4 5.2 3.1 69 2.3 SSW 9 15 5 8 1021.8 1021.9 0.0
07/09:00am 7.3 3.9 1.8 68 2.3 SSW 9 17 5 9 1021.6 1021.7 0.0
07/08:30am 6.7 2.9 1.8 71 2.1 SSW 11 17 6 9 1021.4 1021.5 0.0
07/08:00am 5.7 2.3 1.8 76 1.6 SW 9 15 5 8 1021.2 1021.3 0.0
07/07:30am 4.5 1.0 1.2 79 1.3 SW 9 17 5 9 1020.9 1021.0 0.0
07/07:00am 4.2 0.6 0.9 79 1.3 S 9 15 5 8 1020.3 1020.4 0.0
07/06:30am 4.8 1.0 1.5 79 1.4 SW 11 17 6 9 1019.9 1020.0 0.0
07/06:00am 4.6 0.3 1.3 79 1.3 SSW 13 19 7 10 1019.4 1019.4 0.0
07/05:30am 4.3 0.4 1.2 80 1.3 SSW 11 15 6 8 1019.0 1019.1 0.0
07/05:00am 5.0 0.3 1.1 76 1.6 SSW 15 19 8 10 1018.8 1018.9 0.0
07/04:30am 5.5 0.1 1.4 75 1.7 SW 19 22 10 12 1018.8 1018.9 0.0
07/04:00am 5.8 0.4 1.5 74 1.8 SW 19 22 10 12 1018.8 1018.9 0.0
07/03:30am 6.2 0.8 1.5 72 2.0 SW 19 24 10 13 1018.8 1018.9 0.0
07/03:00am 6.0 0.4 1.5 73 1.9 SW 20 26 11 14 1018.7 1018.8 0.0
07/02:30am 6.0 0.1 1.5 73 1.9 SW 22 28 12 15 1018.5 1018.6 0.0
07/02:00am 6.0 0.4 1.3 72 1.9 SW 20 26 11 14 1018.6 1018.7 0.0
07/01:30am 5.9 0.5 1.2 72 1.9 SW 19 24 10 13 1018.6 1018.7 0.0
07/01:00am 6.2 0.8 1.1 70 2.1 SW 19 24 10 13 1018.5 1018.6 0.0
07/12:30am 5.9 0.5 1.1 71 2.0 SW 19 24 10 13 1018.8 1018.9 0.0
07/12:00am 5.9 -0.1 1.1 71 2.0 SW 22 26 12 14 1018.8 1018.9 0.0
 
Date/Time
EST
Temp
°C
App
Temp
°C
Dew
Point
Rel
Hum
%
Delta-T
°C
Wind Press
QNH
hPa
Press
MSL
hPa
Rain
since 9 am
mm
Dir
 
Spd
km/h
Gust
km/h
Spd
kts
Gust
kts
06/11:30pm 5.7 0.1 1.1 72 1.9 SW 20 24 11 13 1018.9 1019.0 0.0
06/11:00pm 5.7 0.3 1.2 73 1.9 SW 19 22 10 12 1019.0 1019.1 0.0
06/10:30pm 5.5 0.1 1.4 75 1.7 SW 19 20 10 11 1019.2 1019.2 0.0
06/10:00pm 5.2 0.9 1.3 76 1.6 SW 13 17 7 9 1019.0 1019.1 0.0
06/09:30pm 5.5 0.9 1.4 75 1.7 SSW 15 19 8 10 1019.0 1019.1 0.0
06/09:00pm 5.7 0.1 1.4 74 1.8 SW 20 24 11 13 1019.0 1019.1 0.0
06/08:30pm 6.0 0.4 1.5 73 1.9 SW 20 26 11 14 1019.0 1019.1 0.0
06/08:00pm 6.0 1.0 1.5 73 1.9 SW 17 22 9 12 1018.9 1019.0 0.0
06/07:30pm 5.9 1.2 1.2 72 1.9 SW 15 19 8 10 1018.9 1019.0 0.0
06/07:00pm 6.4 1.8 1.3 70 2.1 SW 15 20 8 11 1018.7 1018.8 0.0
06/06:30pm 6.4 2.8 0.7 67 2.3 WSW 9 13 5 7 1018.6 1018.7 0.0
06/06:00pm 7.0 2.7 0.9 65 2.5 WSW 13 19 7 10 1018.3 1018.4 0.0
06/05:30pm 7.2 3.2 0.4 62 2.8 SW 11 15 6 8 1017.9 1017.9 0.0
06/05:00pm 8.6 4.2 0.6 57 3.3 WSW 13 15 7 8 1017.3 1017.4 0.0
06/04:30pm 9.9 5.5 0.5 52 4.0 W 13 17 7 9 1017.1 1017.2 0.0
06/04:00pm 11.1 6.9 1.6 52 4.2 WNW 13 17 7 9 1017.0 1017.1 0.0
06/03:30pm 11.4 6.4 1.1 49 4.5 W 17 22 9 12 1016.9 1017.0 0.0
06/03:00pm 11.7 7.3 0.2 45 4.9 WSW 13 20 7 11 1016.8 1016.9 0.0
06/02:30pm 12.2 7.7 0.0 43 5.2 WSW 13 17 7 9 1016.7 1016.7 0.0
06/02:00pm 12.1 8.0 -0.4 42 5.3 W 11 15 6 8 1016.4 1016.4 0.0
06/01:30pm 11.9 7.4 -0.6 42 5.3 SW 13 19 7 10 1016.8 1016.9 0.0
06/01:00pm 12.1 8.5 0.5 45 5.0 W 9 13 5 7 1017.0 1017.1 0.0
06/12:30pm 12.1 8.9 -0.7 41 5.4 W 6 15 3 8 1017.6 1017.6 0.0
06/12:00pm 11.2 7.4 -0.6 44 4.9 SW 9 15 5 8 1018.0 1018.0 0.0
06/11:30am 10.6 7.0 0.6 50 4.3 SW 9 15 5 8 1018.4 1018.5 0.0
06/11:00am 10.3 7.0 2.4 58 3.5 SW 9 15 5 8 1018.7 1018.8 0.0
06/10:30am 9.5 6.1 1.7 58 3.4 SW 9 15 5 8 1019.0 1019.1 0.0
06/10:00am 9.4 5.6 1.8 59 3.3 NW 11 15 6 8 1019.0 1019.1 0.0
06/09:30am 8.9 5.1 1.6 60 3.1 NW 11 15 6 8 1019.0 1019.1 0.0
06/09:00am 8.7 5.5 3.3 69 2.4 NNW 9 19 5 10 1018.9 1019.0 0.0
06/08:30am 7.6 4.5 3.5 75 1.8 NW 9 15 5 8 1018.9 1019.0 0.0
06/08:00am 5.6 2.3 2.6 81 1.3 NW 9 13 5 7 1018.9 1019.0 0.0
06/07:30am 5.5 2.2 2.7 82 1.2 NNW 9 17 5 9 1018.7 1018.8 0.0
06/07:00am 4.5 1.1 2.0 84 1.0 N 9 20 5 11 1018.5 1018.6 0.0
06/06:30am 5.1 1.7 2.1 81 1.3 N 9 13 5 7 1018.2 1018.3 0.0
06/06:00am 4.9 1.5 2.1 82 1.2 N 9 19 5 10 1018.1 1018.2 0.0
06/05:30am 4.9 1.9 2.3 83 1.1 NNE 7 19 4 10 1017.9 1017.9 0.0
06/05:00am 5.3 3.4 2.7 83 1.1 N 2 13 1 7 1018.0 1018.0 0.0
06/04:30am 4.9 3.3 2.6 85 1.0 CALM 0 0 0 0 1018.0 1018.0 0.0
06/04:00am 4.6 1.6 2.3 85 1.0 SE 7 15 4 8 1018.3 1018.4 0.0
06/03:30am 5.6 2.4 2.9 83 1.2 NNE 9 17 5 9 1018.3 1018.4 0.0
06/03:00am 5.1 1.7 1.8 79 1.4 NNE 9 20 5 11 1018.3 1018.4 0.0
06/02:30am 7.6 4.9 3.5 75 1.8 N 7 20 4 11 1018.7 1018.8 0.0
06/02:00am 7.5 4.9 3.4 75 1.8 NW 6 13 3 7 1019.2 1019.2 0.0
06/01:30am 6.7 4.5 3.3 79 1.5 SW 4 13 2 7 1019.4 1019.4 0.0
06/01:00am 6.6 3.4 2.9 77 1.6 S 9 15 5 8 1019.6 1019.7 0.0
06/12:30am 6.8 4.0 3.2 78 1.6 W 7 15 4 8 1019.8 1019.9 0.0
06/12:00am 6.8 5.0 3.4 79 1.5 NNW 2 6 1 3 1019.8 1019.9 0.0
 
Date/Time
EST
Temp
°C
App
Temp
°C
Dew
Point
Rel
Hum
%
Delta-T
°C
Wind Press
QNH
hPa
Press
MSL
hPa
Rain
since 9 am
mm
Dir
 
Spd
km/h
Gust
km/h
Spd
kts
Gust
kts
05/11:30pm 7.1 3.9 3.3 77 1.7 NW 9 15 5 8 1019.8 1019.9 0.0
05/11:00pm 6.5 4.7 3.3 80 1.4 NNW 2 19 1 10 1019.8 1019.9 0.0
05/10:30pm 6.6 3.5 3.4 80 1.4 NW 9 17 5 9 1019.9 1020.0 0.0
05/10:00pm 7.3 4.5 3.0 74 1.9 NNW 7 17 4 9 1020.1 1020.2 0.0
05/09:30pm 7.2 4.1 3.4 77 1.7 NNW 9 11 5 6 1020.1 1020.2 0.0
05/09:00pm 7.2 3.3 3.4 77 1.7 NW 13 17 7 9 1020.1 1020.2 0.0
05/08:30pm 6.5 3.3 2.9 78 1.6 NNW 9 13 5 7 1020.0 1020.1 0.0
05/08:00pm 7.3 4.1 3.2 75 1.8 N 9 11 5 6 1020.0 1020.1 0.0
05/07:30pm 7.7 4.6 3.4 74 1.9 N 9 17 5 9 1020.0 1020.1 0.0
05/07:00pm 7.9 4.8 3.4 73 2.0 N 9 11 5 6 1019.9 1020.0 0.0
05/06:30pm 8.0 4.4 2.9 70 2.2 N 11 11 6 6 1020.0 1020.1 0.0
05/06:00pm 8.2 4.6 2.7 68 2.4 NNW 11 13 6 7 1020.1 1020.2 0.0
05/05:30pm 9.0 5.3 2.6 64 2.8 NNW 11 15 6 8 1020.1 1020.2 0.0
05/05:00pm 10.4 6.0 2.5 58 3.5 NNW 15 17 8 9 1020.1 1020.2 0.0
05/04:30pm 11.9 7.8 2.1 51 4.4 NNW 13 17 7 9 1019.8 1019.9 0.0
05/04:00pm 12.8 8.8 2.9 51 4.5 NW 13 19 7 10 1020.1 1020.2 0.0
05/03:30pm 13.2 8.9 3.3 51 4.6 NW 15 20 8 11 1020.0 1020.1 0.0
05/03:00pm 13.6 9.6 3.1 49 4.8 NW 13 17 7 9 1019.9 1020.0 0.0
05/02:30pm 13.9 9.3 3.7 50 4.8 NNW 17 22 9 12 1020.2 1020.3 0.0
05/02:00pm 13.5 9.0 2.4 47 5.0 NNW 15 20 8 11 1020.1 1020.2 0.0
05/01:30pm 13.3 8.9 2.8 49 4.8 NW 15 20 8 11 1020.2 1020.3 0.0
05/01:00pm 12.8 8.4 2.9 51 4.5 NNW 15 22 8 12 1020.2 1020.3 0.0
05/12:30pm 12.7 8.9 3.9 55 4.1 NNW 13 19 7 10 1020.9 1021.0 0.0

Other Formats:

Comma delimited format used in spreadsheet applications
http://www.bom.gov.au/fwo/IDN60801/IDN60801.95728.axf

JavaScript Object Notation format (JSON) in row-major order
http://www.bom.gov.au/fwo/IDN60801/IDN60801.95728.json